Weather forecast for Mieroszów

Poland, 561 m
N50.672, E16.210


Sounding

Red line — air temperature ˚C.
Blue line — thermal bubble temperature ˚C.
Green line — dew point temperature ˚C.
Wind speed is in meters per second.

Table forecast

GFS 0.25˚ model

temp. wind gust humid. clouds prec. press. hpbl
Fri22 00:00 4 300.0 wnw 4 12 96 94 1.6 1022 575
03:00 4 335.0 nnw 4 11 98 100 2.3 1023 644
06:00 2 26.0 nne 7 11 97 100 4.1 1027 600
09:00 -1 37.0 ne 6 10 89 100 0.5 1033 637
12:00 -0 42.0 ne 6 9 63 79 0.5 1036 873
15:00 -2 33.0 nne 5 7 58 27 0.0 1038 838
18:00 -4 38.0 ne 3 8 64 14 0.0 1042 444
21:00 -5 56.0 ne 3 6 65 0 0.0 1044 483
 
Sat23 00:00 -5 74.0 ene 2 5 64 0 0.0 1045 376
03:00 -6 86.0 e 1 2 62 0 0.0 1044 225
06:00 -6 51.0 ne 1 1 59 23 0.0 1044 76
09:00 -2 130.0 se 2 3 36 17 0.0 1045 419
12:00 0 110.0 ese 2 2 29 29 0.0 1044 611
15:00 0 102.0 ese 2 2 34 25 0.0 1042 374
18:00 -3 159.0 sse 1 2 46 42 0.0 1042 21
21:00 -3 191.0 s 1 2 43 88 0.0 1042 28
 
Sun24 00:00 -2 225.0 sw 1 2 38 92 0.0 1041 23
03:00 -2 252.0 wsw 1 1 38 97 0.0 1040 21
06:00 -2 257.0 wsw 1 1 39 78 0.0 1041 21
09:00 4 258.0 wsw 1 2 32 83 0.0 1041 192
12:00 7 314.0 nw 2 3 38 54 0.0 1039 455
15:00 5 334.0 nnw 1 2 57 2 0.0 1039 25
18:00 1 281.0 w 1 2 66 23 0.0 1040 22
21:00 1 297.0 wnw 1 2 65 0 0.0 1040 22
 
Mon25 00:00 1 278.0 w 2 2 63 4 0.0 1041 22
03:00 1 292.0 wnw 2 2 64 3 0.0 1040 22
06:00 1 300.0 wnw 2 2 65 2 0.0 1040 22
09:00 7 332.0 nnw 2 4 56 8 0.0 1040 250
12:00 9 342.0 nnw 3 5 55 7 0.0 1039 456
15:00 8 333.0 nnw 2 3 65 18 0.0 1037 127
18:00 4 314.0 nw 2 2 75 54 0.0 1038 22
21:00 3 307.0 nw 2 3 76 88 0.0 1038 22
 
Tue26 00:00 3 269.0 w 2 2 74 82 0.0 1036 22
03:00 3 281.0 w 2 3 75 34 0.0 1035 30
06:00 3 292.0 wnw 3 5 80 55 0.0 1034 101
09:00 8 305.0 nw 4 9 59 86 0.0 1033 436
12:00 10 318.0 nw 5 9 47 92 0.0 1032 585
15:00 8 338.0 nnw 4 10 66 76 0.0 1031 640
18:00 6 340.0 nnw 3 9 82 87 0.1 1032 457
21:00 3 322.0 nw 2 3 93 91 0.0 1032 45
 

0.016 s